Time;durP1;ratioP1;P1;durP2;ratioP2;P2;SDS_P1;SDS_P2;PMS_P1;PMS_P2;Temp;Humidity;BMP_temperature;BMP_pressure;BME280_temperature;BME280_humidity;BME280_pressure;Samples;Min_cycle;Max_cycle;Signal;HPM_P1;HPM_P2
2022/12/02 00:01:27;;;;;;;8.13;6.22;;;20.60;41.80;;;;;;5136632;27;20138;-9
2022/12/02 00:03:55;;;;;;;9.35;6.65;;;20.60;41.90;;;;;;5136256;27;20073;-9
2022/12/02 00:06:30;;;;;;;9.75;6.93;;;20.60;41.90;;;;;;5136266;27;20053;-9
2022/12/02 00:09:02;;;;;;;7.78;6.38;;;20.60;41.80;;;;;;5136097;27;20043;-9
2022/12/02 00:11:30;;;;;;;8.90;6.85;;;20.60;41.80;;;;;;5136501;27;20137;-9
2022/12/02 00:14:01;;;;;;;9.13;7.03;;;20.60;41.90;;;;;;5136473;27;20059;-9
2022/12/02 00:16:27;;;;;;;8.70;6.43;;;20.60;41.90;;;;;;5136510;27;20491;-9
2022/12/02 00:18:54;;;;;;;9.15;6.72;;;20.60;41.90;;;;;;5133773;27;20179;-9
2022/12/02 00:21:21;;;;;;;10.82;7.47;;;20.60;41.90;;;;;;5135815;27;20134;-9
2022/12/02 00:23:47;;;;;;;10.32;7.10;;;20.60;41.80;;;;;;5136294;27;20096;-9
2022/12/02 00:26:12;;;;;;;9.25;6.65;;;20.60;41.80;;;;;;5135981;28;20074;-9
2022/12/02 00:28:38;;;;;;;8.40;6.10;;;20.60;41.80;;;;;;5135874;27;20081;-9
2022/12/02 00:31:04;;;;;;;9.25;6.70;;;20.60;41.90;;;;;;5117250;27;20129;-9
2022/12/02 00:33:30;;;;;;;8.10;6.40;;;20.60;41.90;;;;;;5135868;27;20051;-9
2022/12/02 00:35:55;;;;;;;8.38;6.80;;;20.60;41.90;;;;;;5135797;27;20043;-9
2022/12/02 00:38:21;;;;;;;7.63;6.55;;;20.60;41.80;;;;;;5135984;27;20103;-9
2022/12/02 00:40:47;;;;;;;8.95;6.78;;;20.60;41.90;;;;;;5117049;28;20051;-9
2022/12/02 00:48:41;;;;;;;7.95;7.13;;;20.60;41.80;;;;;;5135850;27;20035;-9
2022/12/02 00:51:07;;;;;;;8.75;6.72;;;20.60;41.80;;;;;;5135140;27;20070;-9
2022/12/02 00:53:32;;;;;;;9.00;7.25;;;20.60;41.80;;;;;;5135531;27;20496;-9
2022/12/02 00:55:58;;;;;;;8.95;6.32;;;20.60;42.40;;;;;;5135536;27;20556;-9
2022/12/02 00:58:23;;;;;;;9.50;7.03;;;20.60;41.80;;;;;;5116939;27;20107;-9
2022/12/02 01:00:49;;;;;;;7.70;6.70;;;20.60;41.80;;;;;;5135343;27;20101;-9
2022/12/02 01:03:15;;;;;;;8.73;6.22;;;20.60;41.80;;;;;;5135421;27;20647;-9
2022/12/02 01:05:41;;;;;;;8.77;6.32;;;20.60;41.80;;;;;;5135443;27;20484;-9
2022/12/02 01:08:07;;;;;;;9.52;6.45;;;20.60;41.80;;;;;;5135471;27;20076;-9
2022/12/02 01:10:32;;;;;;;8.65;6.55;;;20.60;41.80;;;;;;5135312;27;20134;-9
2022/12/02 01:12:58;;;;;;;9.10;6.68;;;20.60;41.80;;;;;;5135185;27;20047;-9
2022/12/02 01:15:24;;;;;;;9.27;6.32;;;20.60;41.80;;;;;;5116951;27;20495;-9
2022/12/02 01:17:50;;;;;;;9.20;6.72;;;20.60;41.80;;;;;;5116441;27;20047;-9
2022/12/02 01:20:16;;;;;;;9.80;7.00;;;20.60;41.80;;;;;;5135086;27;20047;-9
2022/12/02 01:22:42;;;;;;;10.30;6.90;;;20.60;41.80;;;;;;5117094;28;20054;-8
2022/12/02 01:25:09;;;;;;;9.82;7.25;;;20.60;41.80;;;;;;5134998;27;20395;-9
2022/12/02 01:27:35;;;;;;;9.23;6.50;;;20.60;41.80;;;;;;5116598;28;20047;-9
2022/12/02 01:30:00;;;;;;;9.60;6.85;;;20.60;41.80;;;;;;5130844;27;20149;-9
2022/12/02 01:32:27;;;;;;;10.02;7.43;;;20.60;41.80;;;;;;5134709;27;20134;-9
2022/12/02 01:34:53;;;;;;;8.57;6.28;;;20.60;41.80;;;;;;5134846;27;20051;-9
2022/12/02 01:37:18;;;;;;;8.30;6.28;;;20.60;42.40;;;;;;5116368;28;20062;-9
2022/12/02 01:39:44;;;;;;;8.77;6.32;;;20.60;41.80;;;;;;5134359;27;20050;-9
2022/12/02 01:42:10;;;;;;;9.00;7.25;;;20.60;41.80;;;;;;5134416;27;20495;-9
2022/12/02 01:44:37;;;;;;;9.55;6.80;;;20.50;41.70;;;;;;5134317;27;20380;-9
2022/12/02 01:47:03;;;;;;;8.23;6.47;;;20.50;41.70;;;;;;5134706;27;20057;-9
2022/12/02 01:49:29;;;;;;;8.80;6.82;;;20.50;41.80;;;;;;5134237;27;20046;-9
2022/12/02 01:51:54;;;;;;;8.30;6.40;;;20.50;41.90;;;;;;5134664;27;20055;-9
2022/12/02 01:54:20;;;;;;;7.68;6.18;;;20.60;41.80;;;;;;5116060;27;20092;-9
2022/12/02 01:56:46;;;;;;;8.10;6.00;;;20.50;41.80;;;;;;5134406;27;20508;-9
2022/12/02 01:59:15;;;;;;;9.82;7.30;;;20.50;41.80;;;;;;5114027;28;20055;-9
2022/12/02 02:01:41;;;;;;;8.35;6.43;;;20.50;41.80;;;;;;5134382;27;20062;-9
2022/12/02 02:04:08;;;;;;;11.43;6.75;;;20.50;41.90;;;;;;5133566;27;20051;-9
2022/12/02 02:06:37;;;;;;;8.68;6.90;;;20.50;41.90;;;;;;5134254;27;20090;-9
2022/12/02 02:09:03;;;;;;;6.95;5.68;;;20.50;41.90;;;;;;5114538;28;20055;-9
2022/12/02 02:11:29;;;;;;;8.98;6.60;;;20.50;41.90;;;;;;5134193;27;20043;-9
2022/12/02 02:13:58;;;;;;;8.85;6.60;;;20.50;41.90;;;;;;5134839;27;20095;-9
2022/12/02 02:16:24;;;;;;;8.07;6.03;;;20.50;42.40;;;;;;5134143;27;20563;-9
2022/12/02 02:18:50;;;;;;;9.77;6.85;;;20.50;41.90;;;;;;5115512;27;20055;-9
2022/12/02 02:21:23;;;;;;;9.23;5.95;;;20.50;41.90;;;;;;5115550;28;20055;-9
2022/12/02 02:23:49;;;;;;;8.20;6.00;;;20.50;41.90;;;;;;5116127;28;20400;-9
2022/12/02 02:26:15;;;;;;;10.75;7.45;;;20.50;41.90;;;;;;5115533;27;20050;-9
2022/12/02 02:28:41;;;;;;;8.68;6.90;;;20.50;41.90;;;;;;5115479;28;20043;-9
2022/12/02 02:31:07;;;;;;;9.38;6.57;;;20.50;41.90;;;;;;5133980;27;20054;-9
2022/12/02 02:33:39;;;;;;;10.45;7.38;;;20.50;41.90;;;;;;5115462;27;20042;-9
2022/12/02 02:36:05;;;;;;;8.05;6.30;;;20.50;41.90;;;;;;5115769;27;20107;-9
2022/12/02 02:38:32;;;;;;;10.07;7.00;;;20.50;41.90;;;;;;5115258;28;20043;-9
2022/12/02 02:40:59;;;;;;;7.50;5.88;;;20.50;41.90;;;;;;5115071;28;20055;-9
2022/12/02 02:43:27;;;;;;;7.32;5.60;;;20.50;41.90;;;;;;5115256;28;20453;-9
2022/12/02 02:45:53;;;;;;;8.82;6.53;;;20.50;41.90;;;;;;5115232;27;20058;-9
2022/12/02 02:48:23;;;;;;;8.27;6.50;;;20.50;41.90;;;;;;5115147;27;20081;-9
2022/12/02 02:50:49;;;;;;;8.13;6.28;;;20.50;41.90;;;;;;5133558;27;20057;-9
2022/12/02 02:53:20;;;;;;;9.15;5.97;;;20.40;41.90;;;;;;5115283;28;20172;-9
2022/12/02 02:55:47;;;;;;;8.88;6.47;;;20.40;41.90;;;;;;5115601;28;20381;-9
2022/12/02 02:58:13;;;;;;;8.38;6.47;;;20.40;41.90;;;;;;5115012;28;20051;-9
2022/12/02 03:00:44;;;;;;;8.48;5.78;;;20.50;41.90;;;;;;5115328;27;20099;-9
2022/12/02 03:03:13;;;;;;;9.90;6.70;;;20.50;41.90;;;;;;5115064;27;20058;-9
2022/12/02 03:05:40;;;;;;;7.93;6.32;;;20.50;41.90;;;;;;5115006;27;20047;-9
2022/12/02 03:08:07;;;;;;;8.45;6.45;;;20.40;41.80;;;;;;5114953;28;20511;-9
2022/12/02 03:10:34;;;;;;;8.35;6.20;;;20.50;42.40;;;;;;5111244;28;20481;-9
2022/12/02 03:13:00;;;;;;;8.55;6.20;;;20.50;41.90;;;;;;5133403;27;20104;-9
2022/12/02 03:15:27;;;;;;;9.60;6.82;;;20.50;41.90;;;;;;5136099;27;20055;-9
2022/12/02 03:17:54;;;;;;;9.98;6.57;;;20.50;41.80;;;;;;5136958;27;20054;-9
2022/12/02 03:20:21;;;;;;;9.52;6.60;;;20.50;41.80;;;;;;5137026;27;20099;-9
2022/12/02 03:22:47;;;;;;;9.40;6.50;;;20.50;41.80;;;;;;5137517;27;20051;-9
2022/12/02 03:25:13;;;;;;;8.18;5.75;;;20.50;41.80;;;;;;5136907;27;20521;-9
2022/12/02 03:27:39;;;;;;;7.95;5.97;;;20.50;41.80;;;;;;5136969;27;20055;-9
2022/12/02 03:30:05;;;;;;;7.70;5.95;;;20.50;41.70;;;;;;5136814;27;20098;-9
2022/12/02 03:32:31;;;;;;;9.35;6.43;;;20.50;41.80;;;;;;5136828;27;20055;-9
2022/12/02 03:34:57;;;;;;;10.07;6.90;;;20.50;41.70;;;;;;5136827;27;20057;-9
2022/12/02 03:37:24;;;;;;;9.18;6.35;;;20.50;41.80;;;;;;5137286;27;20059;-9
2022/12/02 03:39:50;;;;;;;9.02;6.22;;;20.50;41.80;;;;;;5136971;27;20051;-9
2022/12/02 03:42:16;;;;;;;7.95;6.30;;;20.50;41.80;;;;;;5136627;27;20054;-9
2022/12/02 03:44:43;;;;;;;9.02;6.72;;;20.50;41.80;;;;;;5136368;27;20042;-9
2022/12/02 03:47:09;;;;;;;8.60;6.32;;;20.50;41.80;;;;;;5117882;27;20062;-9
2022/12/02 03:49:35;;;;;;;8.10;5.82;;;20.50;41.80;;;;;;5136650;27;20062;-9
2022/12/02 03:52:00;;;;;;;7.88;6.07;;;20.50;41.70;;;;;;5136844;27;20043;-9
2022/12/02 03:54:26;;;;;;;10.55;7.47;;;20.50;41.80;;;;;;5136475;27;20096;-9
2022/12/02 03:56:52;;;;;;;8.30;6.03;;;20.50;41.80;;;;;;5136461;27;20047;-9
2022/12/02 03:59:24;;;;;;;9.43;6.22;;;20.50;41.80;;;;;;5136579;27;20100;-9
2022/12/02 04:01:49;;;;;;;9.48;6.32;;;20.50;41.80;;;;;;5136391;27;20094;-9
2022/12/02 04:04:15;;;;;;;7.45;6.00;;;20.50;41.80;;;;;;5136258;27;20142;-9
2022/12/02 04:06:41;;;;;;;8.63;5.90;;;20.50;41.70;;;;;;5136272;27;20090;-9
2022/12/02 04:09:06;;;;;;;7.57;5.57;;;20.50;41.70;;;;;;5136153;27;20047;-9
2022/12/02 04:11:32;;;;;;;8.55;6.55;;;20.50;41.70;;;;;;5136249;27;20571;-9
2022/12/02 04:13:58;;;;;;;7.80;6.05;;;20.50;41.70;;;;;;5136157;27;20492;-9
2022/12/02 04:16:23;;;;;;;7.45;5.65;;;20.50;41.70;;;;;;5136024;27;20039;-9
2022/12/02 04:18:49;;;;;;;8.85;6.72;;;20.50;41.70;;;;;;5136349;27;20047;-9
2022/12/02 04:21:15;;;;;;;8.65;6.18;;;20.50;41.60;;;;;;5136079;27;20043;-9
2022/12/02 04:23:40;;;;;;;8.02;5.53;;;20.60;41.70;;;;;;5136011;27;20502;-9
2022/12/02 04:26:06;;;;;;;8.80;5.65;;;20.50;41.60;;;;;;5135180;27;20057;-9
2022/12/02 04:28:32;;;;;;;9.40;6.85;;;20.60;41.80;;;;;;5135728;27;20081;-9
2022/12/02 04:30:57;;;;;;;8.65;5.90;;;20.60;41.80;;;;;;5135865;27;20058;-9
2022/12/02 04:33:23;;;;;;;8.80;6.18;;;20.50;41.70;;;;;;5135749;27;20047;-9
2022/12/02 04:35:48;;;;;;;7.50;6.20;;;20.50;41.70;;;;;;5135890;27;20047;-9
2022/12/02 04:38:14;;;;;;;8.73;6.60;;;20.60;41.70;;;;;;5135915;27;20092;-9
2022/12/02 04:40:40;;;;;;;9.02;6.35;;;20.50;41.70;;;;;;5117341;27;20057;-9
2022/12/02 04:43:06;;;;;;;8.52;6.10;;;20.50;41.70;;;;;;5136187;27;20050;-9
2022/12/02 04:45:32;;;;;;;8.18;5.88;;;20.50;41.70;;;;;;5135593;27;20047;-9
2022/12/02 04:47:57;;;;;;;7.75;6.13;;;20.50;41.60;;;;;;5135563;27;20087;-9
2022/12/02 04:50:23;;;;;;;9.32;6.35;;;20.50;41.60;;;;;;5135545;27;20416;-9
2022/12/02 04:52:48;;;;;;;8.95;6.63;;;20.50;41.70;;;;;;5135594;27;20050;-9
2022/12/02 04:55:14;;;;;;;8.63;6.00;;;20.50;41.70;;;;;;5116574;28;20063;-9
2022/12/02 04:57:40;;;;;;;9.00;6.15;;;20.50;41.70;;;;;;5135313;27;20121;-9
2022/12/02 05:00:07;;;;;;;8.57;6.05;;;20.50;41.70;;;;;;5135420;27;20051;-9
2022/12/02 05:02:32;;;;;;;8.77;6.45;;;20.60;41.70;;;;;;5135236;27;20061;-9
2022/12/02 05:04:58;;;;;;;7.80;5.85;;;20.60;41.70;;;;;;5135307;27;20504;-9
2022/12/02 05:07:25;;;;;;;7.82;5.93;;;20.50;41.70;;;;;;5135386;27;20450;-9
2022/12/02 05:09:51;;;;;;;8.60;5.97;;;20.50;41.70;;;;;;5135289;27;20051;-9
2022/12/02 05:12:17;;;;;;;9.65;6.47;;;20.50;41.70;;;;;;5135171;27;20572;-9
2022/12/02 05:14:42;;;;;;;8.30;6.07;;;20.50;41.70;;;;;;5134790;27;20108;-9
2022/12/02 05:17:08;;;;;;;9.10;6.30;;;20.50;41.70;;;;;;5116704;28;20055;-9
2022/12/02 05:19:34;;;;;;;8.15;5.82;;;20.50;41.70;;;;;;5134650;27;20086;-9
2022/12/02 05:22:00;;;;;;;7.88;6.15;;;20.50;42.30;;;;;;5135126;27;20079;-9
2022/12/02 05:24:25;;;;;;;10.05;6.60;;;20.50;41.80;;;;;;5134774;27;20463;-9
2022/12/02 05:26:51;;;;;;;7.70;5.60;;;20.50;41.80;;;;;;5135062;27;20498;-9
2022/12/02 05:29:16;;;;;;;9.20;6.57;;;20.50;41.70;;;;;;5134641;27;20047;-9
2022/12/02 05:31:42;;;;;;;8.55;6.28;;;20.50;41.70;;;;;;5134885;27;20498;-9
2022/12/02 05:34:08;;;;;;;7.50;5.57;;;20.50;41.70;;;;;;5134899;27;20556;-9
2022/12/02 05:36:33;;;;;;;8.63;6.43;;;20.50;41.70;;;;;;5134916;27;20055;-10
2022/12/02 05:38:59;;;;;;;8.52;6.25;;;20.50;41.70;;;;;;5133454;27;20419;-9
2022/12/02 05:41:24;;;;;;;8.60;6.07;;;20.50;41.70;;;;;;5135080;27;20062;-9
2022/12/02 05:43:50;;;;;;;7.88;5.85;;;20.50;41.80;;;;;;5134721;27;20085;-9
2022/12/02 05:46:19;;;;;;;9.13;6.05;;;20.50;41.80;;;;;;5134738;27;20472;-9
2022/12/02 05:48:47;;;;;;;7.47;5.93;;;20.50;41.80;;;;;;5134821;27;20092;-9
2022/12/02 05:51:19;;;;;;;7.82;5.70;;;20.50;41.80;;;;;;5116339;27;20058;-9
2022/12/02 05:53:47;;;;;;;8.32;6.25;;;20.50;41.80;;;;;;5134550;27;20130;-9
2022/12/02 05:56:26;;;;;;;8.77;6.55;;;20.40;41.80;;;;;;5134388;27;20551;-10
2022/12/02 05:59:00;;;;;;;9.27;6.80;;;20.50;41.90;;;;;;5134400;27;20082;-9
2022/12/02 06:01:32;;;;;;;9.35;6.72;;;20.50;41.90;;;;;;5134419;27;20050;-9
2022/12/02 06:03:58;;;;;;;6.78;5.18;;;20.40;41.80;;;;;;5134403;27;20070;-9
2022/12/02 06:06:29;;;;;;;8.13;5.72;;;20.40;41.80;;;;;;5134418;27;20058;-10
2022/12/02 06:08:55;;;;;;;8.05;6.40;;;20.40;41.80;;;;;;5134537;27;20051;-9
2022/12/02 06:11:28;;;;;;;8.75;6.07;;;20.50;41.90;;;;;;5134296;27;20059;-9
2022/12/02 06:14:00;;;;;;;8.18;6.07;;;20.40;41.80;;;;;;5134308;27;20091;-9
2022/12/02 06:16:28;;;;;;;7.28;5.75;;;20.40;41.80;;;;;;5133985;27;20047;-9
2022/12/02 06:18:54;;;;;;;7.95;6.43;;;20.40;41.80;;;;;;5133964;27;20079;-9
2022/12/02 06:21:21;;;;;;;9.00;6.35;;;20.40;41.90;;;;;;5134075;27;20054;-9
2022/12/02 06:23:54;;;;;;;8.63;6.80;;;20.40;41.90;;;;;;5115990;27;20486;-9
2022/12/02 06:26:21;;;;;;;7.93;5.55;;;20.40;41.80;;;;;;5115760;27;20093;-9
2022/12/02 06:28:51;;;;;;;8.55;6.32;;;20.40;41.80;;;;;;5134060;27;20096;-9
2022/12/02 06:31:21;;;;;;;8.32;5.97;;;20.40;41.90;;;;;;5134244;27;20047;-9
2022/12/02 06:33:51;;;;;;;8.45;6.00;;;20.40;41.90;;;;;;5133877;27;20039;-9
2022/12/02 06:36:22;;;;;;;8.90;6.55;;;20.30;41.90;;;;;;5133968;27;20061;-9
2022/12/02 06:39:10;;;;;;;7.90;5.70;;;20.40;41.90;;;;;;5133875;27;20127;-9
2022/12/02 06:41:36;;;;;;;8.23;5.90;;;20.40;41.90;;;;;;5115760;27;20050;-9
2022/12/02 06:47:31;;;;;;;7.75;6.05;;;20.40;41.90;;;;;;5133674;28;20113;-9
2022/12/02 06:50:07;;;;;;;7.60;5.82;;;20.40;41.90;;;;;;5132944;27;20134;-9
2022/12/02 06:52:36;;;;;;;8.00;5.68;;;20.40;41.90;;;;;;5133985;27;20102;-9
2022/12/02 06:55:10;;;;;;;8.48;6.38;;;20.40;41.80;;;;;;5134030;27;20058;-9
2022/12/02 06:57:36;;;;;;;8.00;6.07;;;20.40;41.80;;;;;;5133532;27;20050;-9
2022/12/02 07:00:03;;;;;;;7.95;6.13;;;20.40;41.80;;;;;;5133595;27;20108;-9
2022/12/02 07:02:31;;;;;;;9.07;6.30;;;20.40;41.80;;;;;;5133775;27;20054;-9
2022/12/02 07:04:57;;;;;;;8.27;6.32;;;20.40;41.80;;;;;;5133455;27;20098;-9
2022/12/02 07:07:33;;;;;;;9.27;6.75;;;20.40;41.70;;;;;;5133436;27;20496;-9
2022/12/02 07:10:26;;;;;;;8.25;6.38;;;20.40;41.70;;;;;;5112945;28;20052;-9
2022/12/02 07:12:52;;;;;;;6.80;5.68;;;20.40;41.70;;;;;;5113129;28;20047;-9
2022/12/02 07:15:26;;;;;;;8.68;6.30;;;20.40;41.70;;;;;;5113110;28;20048;-9
2022/12/02 07:17:55;;;;;;;7.75;5.75;;;20.40;41.70;;;;;;5112396;28;20079;-9
2022/12/02 07:20:27;;;;;;;7.65;5.93;;;20.50;41.70;;;;;;5112985;28;20063;-9
2022/12/02 07:22:59;;;;;;;8.02;5.93;;;20.40;41.70;;;;;;5112698;28;20051;-9
2022/12/02 07:25:33;;;;;;;8.18;5.88;;;20.40;41.70;;;;;;5112951;28;20055;-9
2022/12/02 07:28:01;;;;;;;9.68;6.72;;;20.40;41.70;;;;;;5112433;28;20134;-9
2022/12/02 07:30:35;;;;;;;8.10;6.22;;;20.50;41.70;;;;;;5112622;28;20480;-9
2022/12/02 07:33:02;;;;;;;8.50;6.57;;;20.40;41.70;;;;;;5112586;28;20549;-9
2022/12/02 07:35:28;;;;;;;8.00;6.20;;;20.40;41.70;;;;;;5112534;28;20056;-9
2022/12/02 07:37:53;;;;;;;7.47;6.03;;;20.40;42.30;;;;;;5112459;28;20511;-9
2022/12/02 07:40:19;;;;;;;7.50;5.72;;;20.40;41.70;;;;;;5112721;28;20122;-9
2022/12/02 07:42:45;;;;;;;7.55;5.90;;;20.40;41.70;;;;;;5112742;28;20066;-9
2022/12/02 07:45:17;;;;;;;8.57;6.28;;;20.40;41.70;;;;;;5112422;28;20043;-9
2022/12/02 07:47:43;;;;;;;8.25;6.28;;;20.40;41.70;;;;;;5112583;28;20051;-9
2022/12/02 07:50:12;;;;;;;8.07;6.20;;;20.50;41.70;;;;;;5112566;28;20050;-9
2022/12/02 07:52:38;;;;;;;8.25;6.13;;;20.40;41.70;;;;;;5112346;28;20450;-9
2022/12/02 07:55:06;;;;;;;7.43;5.70;;;20.40;41.70;;;;;;5093945;28;20107;-9
2022/12/02 07:57:33;;;;;;;9.98;6.35;;;20.40;41.70;;;;;;5112006;28;20385;-9
2022/12/02 07:59:58;;;;;;;8.25;6.45;;;20.50;41.70;;;;;;5112489;28;20070;-9
2022/12/02 08:02:25;;;;;;;8.90;6.55;;;20.40;41.70;;;;;;5114898;28;20504;-9
2022/12/02 08:04:51;;;;;;;7.65;5.47;;;20.40;41.70;;;;;;5115791;28;20446;-9
2022/12/02 08:07:16;;;;;;;7.10;5.82;;;20.50;41.70;;;;;;5115485;28;20127;-9
2022/12/02 08:09:42;;;;;;;8.52;6.13;;;20.50;41.70;;;;;;5115528;28;20070;-9
2022/12/02 08:12:08;;;;;;;7.97;6.20;;;20.40;41.70;;;;;;5115644;28;20075;-9
2022/12/02 08:14:34;;;;;;;8.60;6.55;;;20.50;41.70;;;;;;5115791;28;20075;-9
2022/12/02 08:16:59;;;;;;;9.23;6.57;;;20.40;41.70;;;;;;5115352;28;20059;-9
2022/12/02 08:19:25;;;;;;;8.57;6.35;;;20.40;41.70;;;;;;5115631;28;20052;-9
2022/12/02 08:21:51;;;;;;;8.98;6.32;;;20.40;41.70;;;;;;5097116;28;20052;-11
2022/12/02 08:24:17;;;;;;;8.70;6.30;;;20.40;41.70;;;;;;5115362;28;20515;-9
2022/12/02 08:26:43;;;;;;;12.52;6.70;;;20.40;41.80;;;;;;5115422;28;20056;-9
2022/12/02 08:29:09;;;;;;;8.90;6.53;;;20.40;41.80;;;;;;5115054;28;20052;-9
2022/12/02 08:31:35;;;;;;;10.00;6.20;;;20.40;41.80;;;;;;5115320;28;20082;-9
2022/12/02 08:34:00;;;;;;;8.10;6.18;;;20.40;41.80;;;;;;5115596;28;20158;-9
2022/12/02 08:36:26;;;;;;;9.23;6.45;;;20.40;41.70;;;;;;5115251;28;20055;-9
2022/12/02 08:38:52;;;;;;;8.15;6.30;;;20.40;41.70;;;;;;5115026;28;20058;-9
2022/12/02 08:41:17;;;;;;;8.73;6.28;;;20.40;41.70;;;;;;5115118;28;20082;-9
2022/12/02 08:43:43;;;;;;;8.95;6.20;;;20.40;41.60;;;;;;5115154;28;20058;-9
2022/12/02 08:46:10;;;;;;;8.15;6.55;;;20.40;41.60;;;;;;5115153;28;20047;-9
2022/12/02 08:48:36;;;;;;;8.38;6.30;;;20.40;41.60;;;;;;5114982;28;20063;-9
2022/12/02 08:51:01;;;;;;;7.43;5.95;;;20.40;41.60;;;;;;5114910;28;20090;-9
2022/12/02 08:53:27;;;;;;;10.00;7.00;;;20.40;41.60;;;;;;5114999;28;20048;-9
2022/12/02 08:55:53;;;;;;;9.85;6.07;;;20.40;41.60;;;;;;5114832;28;20051;-9
2022/12/02 08:58:18;;;;;;;8.15;6.10;;;20.40;41.60;;;;;;5114763;28;20047;-9
2022/12/02 09:00:44;;;;;;;8.35;6.53;;;20.40;42.10;;;;;;5114736;28;20078;-9
2022/12/02 09:03:10;;;;;;;9.30;7.00;;;20.40;41.60;;;;;;5114833;28;20335;-9
2022/12/02 09:05:37;;;;;;;7.82;6.43;;;20.40;41.80;;;;;;5115077;28;20081;-9
2022/12/02 09:08:03;;;;;;;9.63;7.07;;;20.40;41.70;;;;;;5114717;28;20134;-9
2022/12/02 09:10:30;;;;;;;8.65;6.55;;;20.40;42.30;;;;;;5114699;28;20047;-9
2022/12/02 09:12:55;;;;;;;8.43;6.35;;;20.40;41.70;;;;;;5114424;28;20060;-9
2022/12/02 09:15:21;;;;;;;8.52;6.65;;;20.40;42.00;;;;;;5114612;28;20120;-9
2022/12/02 09:17:48;;;;;;;8.70;6.97;;;20.40;41.70;;;;;;5114535;28;20142;-9
2022/12/02 09:20:15;;;;;;;8.82;6.55;;;20.30;41.70;;;;;;5114557;28;20052;-9
2022/12/02 09:22:44;;;;;;;9.02;6.75;;;20.30;41.60;;;;;;5114750;28;20549;-9
2022/12/02 09:25:10;;;;;;;9.40;7.00;;;20.30;41.70;;;;;;5114447;28;20063;-9
2022/12/02 09:27:36;;;;;;;8.10;6.38;;;20.30;41.70;;;;;;5114313;28;20105;-9
2022/12/02 09:30:03;;;;;;;7.75;5.78;;;20.30;41.70;;;;;;5114481;28;20051;-9
2022/12/02 09:32:29;;;;;;;9.10;6.53;;;20.30;41.70;;;;;;5114349;28;20051;-9
2022/12/02 09:34:55;;;;;;;9.20;6.75;;;20.30;41.60;;;;;;5114219;28;20059;-9
2022/12/02 09:37:21;;;;;;;10.50;7.30;;;20.30;41.60;;;;;;5114426;28;20099;-9
2022/12/02 09:39:47;;;;;;;8.43;6.40;;;20.40;41.60;;;;;;5114316;28;20472;-9
2022/12/02 09:42:14;;;;;;;8.57;6.50;;;20.40;41.60;;;;;;5114105;28;20059;-9
2022/12/02 09:44:42;;;;;;;8.88;6.10;;;20.40;41.60;;;;;;5114035;28;20059;-9
2022/12/02 09:47:08;;;;;;;8.90;6.80;;;20.40;41.60;;;;;;5113975;28;20055;-9
2022/12/02 09:49:34;;;;;;;9.23;6.85;;;20.40;41.60;;;;;;5113928;28;20047;-9
2022/12/02 09:52:03;;;;;;;8.60;6.30;;;20.40;41.60;;;;;;5114202;28;20051;-9
2022/12/02 09:54:29;;;;;;;9.25;6.95;;;20.40;41.50;;;;;;5113965;28;20100;-9
2022/12/02 09:56:56;;;;;;;7.88;6.35;;;20.40;41.50;;;;;;5113863;28;20059;-9
2022/12/02 09:59:22;;;;;;;10.43;7.10;;;20.40;41.50;;;;;;5113603;28;20044;-9
2022/12/02 10:01:49;;;;;;;9.27;6.78;;;20.40;41.40;;;;;;5113944;28;20382;-9
2022/12/02 10:04:19;;;;;;;8.65;6.35;;;20.40;41.40;;;;;;5113887;28;20052;-9
2022/12/02 10:06:45;;;;;;;8.98;6.80;;;20.40;41.50;;;;;;5113902;28;20082;-9
2022/12/02 10:09:27;;;;;;;8.13;6.22;;;20.40;41.50;;;;;;5113522;28;20065;-9
2022/12/02 10:11:53;;;;;;;9.02;6.53;;;20.40;41.50;;;;;;5113994;28;20071;-9
2022/12/02 10:14:19;;;;;;;9.48;6.97;;;20.40;41.50;;;;;;5095065;28;20459;-9
2022/12/02 10:16:45;;;;;;;7.80;6.55;;;20.40;41.50;;;;;;5113789;28;20093;-9
2022/12/02 10:19:19;;;;;;;10.43;7.22;;;20.40;41.50;;;;;;5113376;28;20075;-9
2022/12/02 10:21:45;;;;;;;9.27;7.25;;;20.40;41.50;;;;;;5113297;28;20048;-9
2022/12/02 10:24:12;;;;;;;9.27;7.03;;;20.40;41.50;;;;;;5112787;28;20057;-9
2022/12/02 10:26:52;;;;;;;9.15;6.63;;;20.40;41.60;;;;;;5113538;28;20417;-9
2022/12/02 10:29:27;;;;;;;5.55;4.43;;;20.40;41.50;;;;;;5113685;28;20141;-9
2022/12/02 10:31:59;;;;;;;8.68;6.22;;;20.40;41.50;;;;;;5113239;28;20071;-9
2022/12/02 10:34:27;;;;;;;7.93;6.40;;;20.40;41.50;;;;;;5113449;28;20044;-10
2022/12/02 10:36:53;;;;;;;8.18;6.47;;;20.40;41.40;;;;;;5113304;28;20051;-10
2022/12/02 10:39:28;;;;;;;8.65;6.38;;;20.40;41.40;;;;;;5113123;28;20043;-10
2022/12/02 10:42:06;;;;;;;8.43;6.55;;;20.40;41.40;;;;;;5113825;28;20051;-10
2022/12/02 10:44:38;;;;;;;10.05;6.72;;;20.40;41.30;;;;;;5112788;28;20051;-10
2022/12/02 10:47:11;;;;;;;8.82;6.85;;;20.50;41.40;;;;;;5113160;28;20056;-10
2022/12/02 10:49:42;;;;;;;8.95;6.50;;;20.40;41.40;;;;;;5112912;28;20048;-11
2022/12/02 10:52:10;;;;;;;9.30;6.37;;;20.40;41.00;;;;;;5113145;28;20047;-10
2022/12/02 10:54:38;;;;;;;11.23;7.00;;;20.40;41.40;;;;;;5112810;28;20321;-10
2022/12/02 10:57:05;;;;;;;10.45;6.93;;;20.40;41.40;;;;;;5113076;28;20048;-10
2022/12/02 10:59:32;;;;;;;8.85;6.85;;;20.40;41.40;;;;;;5112836;28;20103;-10
2022/12/02 11:01:58;;;;;;;9.63;6.53;;;20.40;41.40;;;;;;5112815;28;20385;-10
2022/12/02 11:04:24;;;;;;;8.57;6.85;;;20.40;41.40;;;;;;5112925;28;20043;-10
2022/12/02 11:06:53;;;;;;;9.35;6.95;;;20.40;41.40;;;;;;5112935;28;20063;-10
2022/12/02 11:09:24;;;;;;;7.97;6.18;;;20.40;41.40;;;;;;5112895;28;20048;-10
2022/12/02 11:11:49;;;;;;;;;;;20.40;41.40;;;;;;5113368;28;20056;-11
2022/12/02 11:14:40;;;;;;;8.25;6.15;;;20.40;41.40;;;;;;5112724;28;19916;-10
2022/12/02 11:17:09;;;;;;;10.30;6.75;;;20.40;41.40;;;;;;5112836;28;20108;-10
2022/12/02 11:19:35;;;;;;;8.48;6.25;;;20.40;41.90;;;;;;5112442;28;20070;-10
2022/12/02 11:22:01;;;;;;;8.27;6.10;;;20.40;41.40;;;;;;5112952;28;20043;-10
2022/12/02 11:24:27;;;;;;;8.20;6.65;;;20.40;41.40;;;;;;5112858;28;20423;-10
2022/12/02 11:26:58;;;;;;;10.60;6.97;;;20.40;41.40;;;;;;5112735;28;20050;-10
2022/12/02 11:29:29;;;;;;;9.55;6.63;;;20.40;41.40;;;;;;5112889;28;20058;-11
2022/12/02 11:32:21;;;;;;;8.93;6.55;;;20.40;41.30;;;;;;5112943;28;20093;-10
2022/12/02 11:34:56;;;;;;;9.68;7.00;;;20.40;41.40;;;;;;5094700;28;20396;-10
2022/12/02 11:37:35;;;;;;;8.00;6.65;;;20.40;41.40;;;;;;5116293;28;20511;-10
2022/12/02 11:40:09;;;;;;;10.90;6.47;;;20.40;41.40;;;;;;5116143;28;20134;-10
2022/12/02 11:42:35;;;;;;;7.90;6.25;;;20.40;41.40;;;;;;5116012;28;20051;-10
2022/12/02 11:45:36;;;;;;;9.07;6.88;;;20.40;41.90;;;;;;5116139;28;20055;-11
2022/12/02 11:48:02;;;;;;;5.80;4.83;;;20.40;41.40;;;;;;5115881;28;20087;-10
2022/12/02 11:50:31;;;;;;;6.95;6.25;;;20.40;41.40;;;;;;5116290;28;20052;-10
2022/12/02 11:53:18;;;;;;;7.43;6.05;;;20.40;41.40;;;;;;5115938;28;20176;-10
2022/12/02 11:55:50;;;;;;;8.10;6.72;;;20.40;41.30;;;;;;5115760;28;20052;-11
2022/12/02 11:58:31;;;;;;;7.88;6.32;;;20.40;41.30;;;;;;5115721;28;20039;-11
2022/12/02 12:01:02;;;;;;;9.85;6.50;;;20.40;41.30;;;;;;5115813;28;20075;-10
2022/12/02 12:03:28;;;;;;;7.32;6.03;;;20.50;41.40;;;;;;5115802;28;20048;-10
2022/12/02 12:06:08;;;;;;;8.35;6.60;;;20.40;41.30;;;;;;5116081;28;20043;-11
2022/12/02 12:08:38;;;;;;;8.43;6.28;;;20.40;41.30;;;;;;5115643;28;20054;-10
2022/12/02 12:11:26;;;;;;;10.07;6.65;;;20.40;41.30;;;;;;5115815;28;20193;-11
2022/12/02 12:14:00;;;;;;;8.98;6.90;;;20.40;41.30;;;;;;5115483;28;20055;-10
2022/12/02 12:16:31;;;;;;;7.75;6.43;;;20.50;41.40;;;;;;5115833;28;20142;-10
2022/12/02 12:19:00;;;;;;;8.65;6.65;;;20.40;41.30;;;;;;5115493;28;20044;-10
2022/12/02 12:21:32;;;;;;;8.98;7.15;;;20.40;41.40;;;;;;5111471;28;20134;-11
2022/12/02 12:24:17;;;;;;;8.63;7.07;;;20.40;41.30;;;;;;5115369;28;20401;-10
2022/12/02 12:26:51;;;;;;;8.50;6.53;;;20.40;41.40;;;;;;5115752;28;20527;-10
2022/12/02 12:29:19;;;;;;;8.60;6.68;;;20.40;41.40;;;;;;5115080;28;20464;-11
2022/12/02 12:31:45;;;;;;;10.57;6.93;;;20.40;41.40;;;;;;5115309;28;20051;-10
2022/12/02 12:34:10;;;;;;;8.85;6.97;;;20.40;41.40;;;;;;5115497;28;20063;-10
2022/12/02 12:36:37;;;;;;;9.38;7.25;;;20.40;41.40;;;;;;5115514;28;20051;-10
2022/12/02 12:39:05;;;;;;;8.25;6.80;;;20.40;41.30;;;;;;5114940;28;20051;-10
2022/12/02 12:41:30;;;;;;;8.45;6.60;;;20.40;41.30;;;;;;5115505;28;20043;-11
2022/12/02 12:43:56;;;;;;;8.93;7.00;;;20.40;41.40;;;;;;5097375;28;20444;-10
2022/12/02 12:46:21;;;;;;;8.13;7.05;;;20.40;41.40;;;;;;5115073;28;20138;-10
2022/12/02 12:48:47;;;;;;;8.57;6.63;;;20.40;41.30;;;;;;5114688;28;20039;-10
2022/12/02 12:51:13;;;;;;;10.70;7.18;;;20.40;41.40;;;;;;5115362;28;20047;-10
2022/12/02 12:53:39;;;;;;;10.75;7.28;;;20.40;41.40;;;;;;5115021;28;20150;-10
2022/12/02 12:56:06;;;;;;;11.38;6.82;;;20.40;41.40;;;;;;5114969;28;20047;-10
2022/12/02 12:58:31;;;;;;;9.52;7.05;;;20.40;41.40;;;;;;5114614;28;20044;-10
2022/12/02 13:00:57;;;;;;;9.43;6.72;;;20.40;41.40;;;;;;5115048;28;20055;-10
2022/12/02 13:03:23;;;;;;;9.65;6.63;;;20.30;41.40;;;;;;5114837;28;20058;-10
2022/12/02 13:05:48;;;;;;;9.18;6.88;;;20.30;41.40;;;;;;5115042;28;20051;-10
2022/12/02 13:08:14;;;;;;;8.93;6.65;;;20.30;41.40;;;;;;5114991;28;20054;-10